sensor_id;sensor_type;location;lat;lon;timestamp;P1;durP1;ratioP1;P2;durP2;ratioP2
56670;SDS011;42545;50.054;8.306;2023-03-21T00:02:00;0.55;;;0.50;;
56670;SDS011;42545;50.054;8.306;2023-03-21T00:04:27;0.60;;;0.50;;
56670;SDS011;42545;50.054;8.306;2023-03-21T00:06:53;0.95;;;0.80;;
56670;SDS011;42545;50.054;8.306;2023-03-21T00:09:21;1.25;;;0.90;;
56670;SDS011;42545;50.054;8.306;2023-03-21T00:11:54;1.05;;;0.93;;
56670;SDS011;42545;50.054;8.306;2023-03-21T00:14:21;1.08;;;0.80;;
56670;SDS011;42545;50.054;8.306;2023-03-21T00:16:55;0.80;;;0.80;;
56670;SDS011;42545;50.054;8.306;2023-03-21T00:19:23;1.20;;;1.10;;
56670;SDS011;42545;50.054;8.306;2023-03-21T00:21:50;1.10;;;0.93;;
56670;SDS011;42545;50.054;8.306;2023-03-21T00:24:19;1.80;;;0.80;;
56670;SDS011;42545;50.054;8.306;2023-03-21T00:26:46;1.55;;;0.80;;
56670;SDS011;42545;50.054;8.306;2023-03-21T00:29:13;1.58;;;1.00;;
56670;SDS011;42545;50.054;8.306;2023-03-21T00:31:40;1.40;;;0.95;;
56670;SDS011;42545;50.054;8.306;2023-03-21T00:34:07;0.70;;;0.60;;
56670;SDS011;42545;50.054;8.306;2023-03-21T00:36:35;1.13;;;1.02;;
56670;SDS011;42545;50.054;8.306;2023-03-21T00:39:02;1.15;;;0.90;;
56670;SDS011;42545;50.054;8.306;2023-03-21T00:41:30;1.25;;;1.10;;
56670;SDS011;42545;50.054;8.306;2023-03-21T00:43:57;1.08;;;0.98;;
56670;SDS011;42545;50.054;8.306;2023-03-21T00:46:23;1.10;;;1.00;;
56670;SDS011;42545;50.054;8.306;2023-03-21T00:48:50;1.20;;;1.10;;
56670;SDS011;42545;50.054;8.306;2023-03-21T00:51:17;1.80;;;1.27;;
56670;SDS011;42545;50.054;8.306;2023-03-21T00:53:52;1.70;;;1.30;;
56670;SDS011;42545;50.054;8.306;2023-03-21T00:56:19;1.70;;;1.10;;
56670;SDS011;42545;50.054;8.306;2023-03-21T00:58:46;1.63;;;1.10;;
56670;SDS011;42545;50.054;8.306;2023-03-21T01:01:13;1.00;;;0.90;;
56670;SDS011;42545;50.054;8.306;2023-03-21T01:03:40;1.30;;;1.00;;
56670;SDS011;42545;50.054;8.306;2023-03-21T01:06:15;1.38;;;1.08;;
56670;SDS011;42545;50.054;8.306;2023-03-21T01:08:44;1.20;;;1.00;;
56670;SDS011;42545;50.054;8.306;2023-03-21T01:11:14;1.10;;;0.90;;
56670;SDS011;42545;50.054;8.306;2023-03-21T01:13:41;1.20;;;0.80;;
56670;SDS011;42545;50.054;8.306;2023-03-21T01:16:08;1.58;;;0.95;;
56670;SDS011;42545;50.054;8.306;2023-03-21T01:18:36;0.80;;;0.80;;
56670;SDS011;42545;50.054;8.306;2023-03-21T01:21:06;1.17;;;0.95;;
56670;SDS011;42545;50.054;8.306;2023-03-21T01:23:35;1.00;;;0.93;;
56670;SDS011;42545;50.054;8.306;2023-03-21T01:26:02;1.50;;;1.10;;
56670;SDS011;42545;50.054;8.306;2023-03-21T01:28:31;1.05;;;0.95;;
56670;SDS011;42545;50.054;8.306;2023-03-21T01:30:59;1.20;;;1.08;;
56670;SDS011;42545;50.054;8.306;2023-03-21T01:33:27;1.67;;;1.40;;
56670;SDS011;42545;50.054;8.306;2023-03-21T01:35:55;1.50;;;1.00;;
56670;SDS011;42545;50.054;8.306;2023-03-21T01:38:22;1.20;;;1.10;;
56670;SDS011;42545;50.054;8.306;2023-03-21T01:40:49;1.30;;;1.15;;
56670;SDS011;42545;50.054;8.306;2023-03-21T01:43:19;1.33;;;1.02;;
56670;SDS011;42545;50.054;8.306;2023-03-21T01:48:45;1.60;;;1.30;;
56670;SDS011;42545;50.054;8.306;2023-03-21T01:51:15;1.00;;;0.90;;
56670;SDS011;42545;50.054;8.306;2023-03-21T01:53:43;1.33;;;1.10;;
56670;SDS011;42545;50.054;8.306;2023-03-21T01:56:12;1.02;;;0.88;;
56670;SDS011;42545;50.054;8.306;2023-03-21T01:58:43;1.23;;;1.13;;
56670;SDS011;42545;50.054;8.306;2023-03-21T02:01:10;1.35;;;1.00;;
56670;SDS011;42545;50.054;8.306;2023-03-21T02:03:41;1.13;;;1.00;;
56670;SDS011;42545;50.054;8.306;2023-03-21T02:06:16;0.88;;;0.80;;
56670;SDS011;42545;50.054;8.306;2023-03-21T02:08:49;1.05;;;0.90;;
56670;SDS011;42545;50.054;8.306;2023-03-21T02:11:16;0.98;;;0.90;;
56670;SDS011;42545;50.054;8.306;2023-03-21T02:13:45;1.13;;;0.90;;
56670;SDS011;42545;50.054;8.306;2023-03-21T02:16:13;1.08;;;0.98;;
56670;SDS011;42545;50.054;8.306;2023-03-21T02:18:51;1.08;;;0.90;;
56670;SDS011;42545;50.054;8.306;2023-03-21T02:21:36;1.10;;;1.00;;
56670;SDS011;42545;50.054;8.306;2023-03-21T02:24:26;0.90;;;0.77;;
56670;SDS011;42545;50.054;8.306;2023-03-21T02:27:11;1.20;;;1.08;;
56670;SDS011;42545;50.054;8.306;2023-03-21T02:29:44;0.73;;;0.70;;
56670;SDS011;42545;50.054;8.306;2023-03-21T02:32:32;1.60;;;1.00;;
56670;SDS011;42545;50.054;8.306;2023-03-21T02:35:16;1.38;;;1.15;;
56670;SDS011;42545;50.054;8.306;2023-03-21T02:37:55;2.08;;;1.25;;
56670;SDS011;42545;50.054;8.306;2023-03-21T02:40:29;1.85;;;1.50;;
56670;SDS011;42545;50.054;8.306;2023-03-21T02:43:01;1.45;;;1.10;;
56670;SDS011;42545;50.054;8.306;2023-03-21T02:45:33;1.80;;;1.10;;
56670;SDS011;42545;50.054;8.306;2023-03-21T02:48:05;1.73;;;1.15;;
56670;SDS011;42545;50.054;8.306;2023-03-21T02:50:35;1.35;;;1.13;;
56670;SDS011;42545;50.054;8.306;2023-03-21T02:53:09;1.60;;;1.00;;
56670;SDS011;42545;50.054;8.306;2023-03-21T02:55:38;1.35;;;1.10;;
56670;SDS011;42545;50.054;8.306;2023-03-21T02:58:08;1.50;;;1.20;;
56670;SDS011;42545;50.054;8.306;2023-03-21T03:00:37;1.13;;;1.02;;
56670;SDS011;42545;50.054;8.306;2023-03-21T03:03:06;1.10;;;0.90;;
56670;SDS011;42545;50.054;8.306;2023-03-21T03:05:34;1.40;;;1.10;;
56670;SDS011;42545;50.054;8.306;2023-03-21T03:08:14;1.20;;;1.10;;
56670;SDS011;42545;50.054;8.306;2023-03-21T03:10:52;0.88;;;0.80;;
56670;SDS011;42545;50.054;8.306;2023-03-21T03:13:36;1.13;;;0.80;;
56670;SDS011;42545;50.054;8.306;2023-03-21T03:16:12;1.33;;;0.90;;
56670;SDS011;42545;50.054;8.306;2023-03-21T03:18:47;1.15;;;0.80;;
56670;SDS011;42545;50.054;8.306;2023-03-21T03:21:18;1.67;;;1.38;;
56670;SDS011;42545;50.054;8.306;2023-03-21T03:23:50;1.50;;;0.98;;
56670;SDS011;42545;50.054;8.306;2023-03-21T03:26:22;1.38;;;1.00;;
56670;SDS011;42545;50.054;8.306;2023-03-21T03:28:53;1.45;;;1.02;;
56670;SDS011;42545;50.054;8.306;2023-03-21T03:31:25;1.40;;;1.00;;
56670;SDS011;42545;50.054;8.306;2023-03-21T03:33:58;0.95;;;0.80;;
56670;SDS011;42545;50.054;8.306;2023-03-21T03:36:28;1.42;;;0.88;;
56670;SDS011;42545;50.054;8.306;2023-03-21T03:39:01;1.30;;;1.00;;
56670;SDS011;42545;50.054;8.306;2023-03-21T03:41:30;0.82;;;0.80;;
56670;SDS011;42545;50.054;8.306;2023-03-21T03:46:29;1.10;;;0.90;;
56670;SDS011;42545;50.054;8.306;2023-03-21T03:48:59;3.90;;;2.05;;
56670;SDS011;42545;50.054;8.306;2023-03-21T03:51:31;1.65;;;1.33;;
56670;SDS011;42545;50.054;8.306;2023-03-21T03:54:02;2.33;;;1.52;;
56670;SDS011;42545;50.054;8.306;2023-03-21T03:56:32;2.35;;;1.35;;
56670;SDS011;42545;50.054;8.306;2023-03-21T03:59:01;1.58;;;1.27;;
56670;SDS011;42545;50.054;8.306;2023-03-21T04:01:31;1.65;;;1.35;;
56670;SDS011;42545;50.054;8.306;2023-03-21T04:03:58;2.10;;;1.45;;
56670;SDS011;42545;50.054;8.306;2023-03-21T04:06:26;1.70;;;1.45;;
56670;SDS011;42545;50.054;8.306;2023-03-21T04:08:53;1.88;;;1.35;;
56670;SDS011;42545;50.054;8.306;2023-03-21T04:11:22;2.00;;;1.40;;
56670;SDS011;42545;50.054;8.306;2023-03-21T04:13:49;1.75;;;1.42;;
56670;SDS011;42545;50.054;8.306;2023-03-21T04:16:16;2.30;;;1.50;;
56670;SDS011;42545;50.054;8.306;2023-03-21T04:18:43;2.33;;;1.85;;
56670;SDS011;42545;50.054;8.306;2023-03-21T04:21:11;3.25;;;2.28;;
56670;SDS011;42545;50.054;8.306;2023-03-21T04:23:38;2.90;;;2.20;;
56670;SDS011;42545;50.054;8.306;2023-03-21T04:26:06;4.15;;;2.60;;
56670;SDS011;42545;50.054;8.306;2023-03-21T04:28:34;3.05;;;2.00;;
56670;SDS011;42545;50.054;8.306;2023-03-21T04:31:01;2.70;;;1.80;;
56670;SDS011;42545;50.054;8.306;2023-03-21T04:33:30;2.40;;;1.75;;
56670;SDS011;42545;50.054;8.306;2023-03-21T04:36:02;1.73;;;1.50;;
56670;SDS011;42545;50.054;8.306;2023-03-21T04:38:30;2.22;;;1.70;;
56670;SDS011;42545;50.054;8.306;2023-03-21T04:40:58;2.15;;;1.45;;
56670;SDS011;42545;50.054;8.306;2023-03-21T04:43:26;1.40;;;1.30;;
56670;SDS011;42545;50.054;8.306;2023-03-21T04:45:54;1.60;;;1.30;;
56670;SDS011;42545;50.054;8.306;2023-03-21T04:48:21;2.13;;;1.50;;
56670;SDS011;42545;50.054;8.306;2023-03-21T04:50:49;1.50;;;1.15;;
56670;SDS011;42545;50.054;8.306;2023-03-21T04:53:16;3.70;;;1.77;;
56670;SDS011;42545;50.054;8.306;2023-03-21T04:55:43;1.50;;;1.23;;
56670;SDS011;42545;50.054;8.306;2023-03-21T04:58:10;1.30;;;1.20;;
56670;SDS011;42545;50.054;8.306;2023-03-21T05:00:37;1.70;;;1.15;;
56670;SDS011;42545;50.054;8.306;2023-03-21T05:03:06;1.70;;;1.10;;
56670;SDS011;42545;50.054;8.306;2023-03-21T05:05:34;1.20;;;0.82;;
56670;SDS011;42545;50.054;8.306;2023-03-21T05:08:01;1.00;;;0.90;;
56670;SDS011;42545;50.054;8.306;2023-03-21T05:10:28;1.08;;;0.98;;
56670;SDS011;42545;50.054;8.306;2023-03-21T05:12:55;0.90;;;0.90;;
56670;SDS011;42545;50.054;8.306;2023-03-21T05:15:21;1.20;;;0.90;;
56670;SDS011;42545;50.054;8.306;2023-03-21T05:17:48;0.80;;;0.80;;
56670;SDS011;42545;50.054;8.306;2023-03-21T05:20:16;1.00;;;0.75;;
56670;SDS011;42545;50.054;8.306;2023-03-21T05:22:43;1.00;;;0.90;;
56670;SDS011;42545;50.054;8.306;2023-03-21T05:25:14;0.98;;;0.82;;
56670;SDS011;42545;50.054;8.306;2023-03-21T05:27:42;1.17;;;0.90;;
56670;SDS011;42545;50.054;8.306;2023-03-21T05:30:15;1.20;;;0.90;;
56670;SDS011;42545;50.054;8.306;2023-03-21T05:32:43;0.95;;;0.82;;
56670;SDS011;42545;50.054;8.306;2023-03-21T05:35:10;0.88;;;0.80;;
56670;SDS011;42545;50.054;8.306;2023-03-21T05:37:39;0.80;;;0.80;;
56670;SDS011;42545;50.054;8.306;2023-03-21T05:40:06;1.38;;;0.90;;
56670;SDS011;42545;50.054;8.306;2023-03-21T05:42:34;1.23;;;1.00;;
56670;SDS011;42545;50.054;8.306;2023-03-21T05:45:01;1.42;;;1.20;;
56670;SDS011;42545;50.054;8.306;2023-03-21T05:47:27;1.40;;;1.00;;
56670;SDS011;42545;50.054;8.306;2023-03-21T05:49:54;1.27;;;1.00;;
56670;SDS011;42545;50.054;8.306;2023-03-21T05:52:21;1.85;;;1.50;;
56670;SDS011;42545;50.054;8.306;2023-03-21T05:54:50;3.00;;;2.22;;
56670;SDS011;42545;50.054;8.306;2023-03-21T05:57:16;3.67;;;2.17;;
56670;SDS011;42545;50.054;8.306;2023-03-21T05:59:43;3.60;;;2.50;;
56670;SDS011;42545;50.054;8.306;2023-03-21T06:02:10;5.05;;;2.92;;
56670;SDS011;42545;50.054;8.306;2023-03-21T06:04:37;4.57;;;2.40;;
56670;SDS011;42545;50.054;8.306;2023-03-21T06:07:03;4.63;;;2.70;;
56670;SDS011;42545;50.054;8.306;2023-03-21T06:09:30;3.05;;;2.50;;
56670;SDS011;42545;50.054;8.306;2023-03-21T06:11:59;3.53;;;2.45;;
56670;SDS011;42545;50.054;8.306;2023-03-21T06:14:25;4.18;;;2.42;;
56670;SDS011;42545;50.054;8.306;2023-03-21T06:16:53;2.80;;;2.13;;
56670;SDS011;42545;50.054;8.306;2023-03-21T06:19:20;5.38;;;3.63;;
56670;SDS011;42545;50.054;8.306;2023-03-21T06:21:47;4.88;;;3.80;;
56670;SDS011;42545;50.054;8.306;2023-03-21T06:24:14;5.70;;;3.65;;
56670;SDS011;42545;50.054;8.306;2023-03-21T06:26:41;5.65;;;3.17;;
56670;SDS011;42545;50.054;8.306;2023-03-21T06:29:10;4.53;;;3.10;;
56670;SDS011;42545;50.054;8.306;2023-03-21T06:31:37;4.50;;;3.30;;
56670;SDS011;42545;50.054;8.306;2023-03-21T06:34:03;5.43;;;3.58;;
56670;SDS011;42545;50.054;8.306;2023-03-21T06:36:30;4.80;;;3.40;;
56670;SDS011;42545;50.054;8.306;2023-03-21T06:38:57;4.57;;;3.20;;
56670;SDS011;42545;50.054;8.306;2023-03-21T06:41:24;3.90;;;2.72;;
56670;SDS011;42545;50.054;8.306;2023-03-21T06:43:51;3.00;;;2.60;;
56670;SDS011;42545;50.054;8.306;2023-03-21T06:46:19;2.95;;;2.40;;
56670;SDS011;42545;50.054;8.306;2023-03-21T06:48:45;6.00;;;3.25;;
56670;SDS011;42545;50.054;8.306;2023-03-21T06:51:13;7.32;;;4.00;;
56670;SDS011;42545;50.054;8.306;2023-03-21T06:53:40;4.88;;;3.35;;
56670;SDS011;42545;50.054;8.306;2023-03-21T06:56:08;5.15;;;3.63;;
56670;SDS011;42545;50.054;8.306;2023-03-21T06:58:36;6.13;;;3.60;;
56670;SDS011;42545;50.054;8.306;2023-03-21T07:01:03;3.92;;;2.97;;
56670;SDS011;42545;50.054;8.306;2023-03-21T07:03:32;4.03;;;2.85;;
56670;SDS011;42545;50.054;8.306;2023-03-21T07:06:05;4.13;;;2.90;;
56670;SDS011;42545;50.054;8.306;2023-03-21T07:08:32;4.03;;;2.72;;
56670;SDS011;42545;50.054;8.306;2023-03-21T07:10:59;4.03;;;2.67;;
56670;SDS011;42545;50.054;8.306;2023-03-21T07:13:26;2.97;;;2.38;;
56670;SDS011;42545;50.054;8.306;2023-03-21T07:15:52;3.08;;;2.20;;
56670;SDS011;42545;50.054;8.306;2023-03-21T07:18:19;2.40;;;1.98;;
56670;SDS011;42545;50.054;8.306;2023-03-21T07:20:49;3.55;;;2.35;;
56670;SDS011;42545;50.054;8.306;2023-03-21T07:23:16;4.10;;;2.50;;
56670;SDS011;42545;50.054;8.306;2023-03-21T07:25:43;3.38;;;2.30;;
56670;SDS011;42545;50.054;8.306;2023-03-21T07:28:10;2.33;;;1.88;;
56670;SDS011;42545;50.054;8.306;2023-03-21T07:30:37;3.53;;;2.17;;
56670;SDS011;42545;50.054;8.306;2023-03-21T07:33:04;2.40;;;1.80;;
56670;SDS011;42545;50.054;8.306;2023-03-21T07:35:31;2.38;;;1.95;;
56670;SDS011;42545;50.054;8.306;2023-03-21T07:38:02;2.90;;;2.00;;
56670;SDS011;42545;50.054;8.306;2023-03-21T07:40:29;3.28;;;1.85;;
56670;SDS011;42545;50.054;8.306;2023-03-21T07:42:56;2.45;;;1.92;;
56670;SDS011;42545;50.054;8.306;2023-03-21T07:45:23;4.40;;;2.30;;
56670;SDS011;42545;50.054;8.306;2023-03-21T07:47:51;4.38;;;2.70;;
56670;SDS011;42545;50.054;8.306;2023-03-21T07:50:18;6.25;;;3.60;;
56670;SDS011;42545;50.054;8.306;2023-03-21T07:52:45;5.10;;;2.83;;
56670;SDS011;42545;50.054;8.306;2023-03-21T07:55:14;5.65;;;3.33;;
56670;SDS011;42545;50.054;8.306;2023-03-21T07:57:41;4.18;;;2.80;;
56670;SDS011;42545;50.054;8.306;2023-03-21T08:00:09;6.65;;;3.83;;
56670;SDS011;42545;50.054;8.306;2023-03-21T08:02:36;7.38;;;4.35;;
56670;SDS011;42545;50.054;8.306;2023-03-21T08:05:03;6.13;;;3.58;;
56670;SDS011;42545;50.054;8.306;2023-03-21T08:07:30;5.93;;;3.10;;
56670;SDS011;42545;50.054;8.306;2023-03-21T08:09:57;5.80;;;3.30;;
56670;SDS011;42545;50.054;8.306;2023-03-21T08:12:25;4.82;;;3.03;;
56670;SDS011;42545;50.054;8.306;2023-03-21T08:14:51;4.43;;;2.70;;
56670;SDS011;42545;50.054;8.306;2023-03-21T08:17:18;3.78;;;2.60;;
56670;SDS011;42545;50.054;8.306;2023-03-21T08:19:45;5.75;;;3.30;;
56670;SDS011;42545;50.054;8.306;2023-03-21T08:22:11;6.93;;;3.67;;
56670;SDS011;42545;50.054;8.306;2023-03-21T08:24:38;6.40;;;3.30;;
56670;SDS011;42545;50.054;8.306;2023-03-21T08:27:05;6.85;;;4.03;;
56670;SDS011;42545;50.054;8.306;2023-03-21T08:29:33;5.85;;;3.40;;
56670;SDS011;42545;50.054;8.306;2023-03-21T08:32:04;12.02;;;4.50;;
56670;SDS011;42545;50.054;8.306;2023-03-21T08:34:31;7.15;;;3.38;;
56670;SDS011;42545;50.054;8.306;2023-03-21T08:36:59;7.10;;;3.70;;
56670;SDS011;42545;50.054;8.306;2023-03-21T08:39:25;4.35;;;2.97;;
56670;SDS011;42545;50.054;8.306;2023-03-21T08:41:52;5.70;;;3.30;;
56670;SDS011;42545;50.054;8.306;2023-03-21T08:44:19;6.47;;;4.18;;
56670;SDS011;42545;50.054;8.306;2023-03-21T08:46:47;6.05;;;3.30;;
56670;SDS011;42545;50.054;8.306;2023-03-21T08:49:14;6.78;;;3.80;;
56670;SDS011;42545;50.054;8.306;2023-03-21T08:51:40;5.90;;;3.70;;
56670;SDS011;42545;50.054;8.306;2023-03-21T08:54:15;7.45;;;3.70;;
56670;SDS011;42545;50.054;8.306;2023-03-21T08:56:44;5.47;;;3.55;;
56670;SDS011;42545;50.054;8.306;2023-03-21T08:59:11;7.57;;;3.83;;
56670;SDS011;42545;50.054;8.306;2023-03-21T09:01:38;5.65;;;3.20;;
56670;SDS011;42545;50.054;8.306;2023-03-21T09:04:06;3.83;;;2.63;;
56670;SDS011;42545;50.054;8.306;2023-03-21T09:06:35;5.78;;;3.30;;
56670;SDS011;42545;50.054;8.306;2023-03-21T09:09:02;4.25;;;2.50;;
56670;SDS011;42545;50.054;8.306;2023-03-21T09:11:31;4.05;;;2.78;;
56670;SDS011;42545;50.054;8.306;2023-03-21T09:13:58;3.60;;;2.60;;
56670;SDS011;42545;50.054;8.306;2023-03-21T09:16:26;3.97;;;2.60;;
56670;SDS011;42545;50.054;8.306;2023-03-21T09:18:53;6.47;;;3.80;;
56670;SDS011;42545;50.054;8.306;2023-03-21T09:21:25;4.53;;;2.97;;
56670;SDS011;42545;50.054;8.306;2023-03-21T09:23:52;4.65;;;2.75;;
56670;SDS011;42545;50.054;8.306;2023-03-21T09:26:23;4.22;;;2.83;;
56670;SDS011;42545;50.054;8.306;2023-03-21T09:28:51;6.00;;;3.38;;
56670;SDS011;42545;50.054;8.306;2023-03-21T09:31:19;5.28;;;2.72;;
56670;SDS011;42545;50.054;8.306;2023-03-21T09:33:47;5.50;;;3.22;;
56670;SDS011;42545;50.054;8.306;2023-03-21T09:36:14;4.88;;;2.80;;
56670;SDS011;42545;50.054;8.306;2023-03-21T09:41:16;5.78;;;3.10;;
56670;SDS011;42545;50.054;8.306;2023-03-21T09:43:56;4.85;;;2.35;;
56670;SDS011;42545;50.054;8.306;2023-03-21T09:46:35;6.35;;;2.63;;
56670;SDS011;42545;50.054;8.306;2023-03-21T09:49:09;6.80;;;3.28;;
56670;SDS011;42545;50.054;8.306;2023-03-21T09:51:42;4.57;;;2.90;;
56670;SDS011;42545;50.054;8.306;2023-03-21T09:54:18;4.45;;;2.92;;
56670;SDS011;42545;50.054;8.306;2023-03-21T09:56:50;4.50;;;2.72;;
56670;SDS011;42545;50.054;8.306;2023-03-21T09:59:21;4.40;;;2.70;;
56670;SDS011;42545;50.054;8.306;2023-03-21T10:01:53;4.15;;;2.70;;
56670;SDS011;42545;50.054;8.306;2023-03-21T10:04:21;5.13;;;2.97;;
56670;SDS011;42545;50.054;8.306;2023-03-21T10:06:51;5.93;;;2.60;;
56670;SDS011;42545;50.054;8.306;2023-03-21T10:09:23;4.88;;;2.63;;
56670;SDS011;42545;50.054;8.306;2023-03-21T10:11:53;4.70;;;2.80;;
56670;SDS011;42545;50.054;8.306;2023-03-21T10:14:24;3.70;;;2.35;;
56670;SDS011;42545;50.054;8.306;2023-03-21T10:16:56;4.95;;;2.38;;
56670;SDS011;42545;50.054;8.306;2023-03-21T10:19:26;4.53;;;2.50;;
56670;SDS011;42545;50.054;8.306;2023-03-21T10:21:53;4.15;;;2.33;;
56670;SDS011;42545;50.054;8.306;2023-03-21T10:24:21;3.17;;;2.33;;
56670;SDS011;42545;50.054;8.306;2023-03-21T10:26:51;4.70;;;2.53;;
56670;SDS011;42545;50.054;8.306;2023-03-21T10:29:19;3.60;;;2.20;;
56670;SDS011;42545;50.054;8.306;2023-03-21T10:31:49;2.70;;;1.90;;
56670;SDS011;42545;50.054;8.306;2023-03-21T10:34:27;4.03;;;2.80;;
56670;SDS011;42545;50.054;8.306;2023-03-21T10:36:59;4.53;;;2.50;;
56670;SDS011;42545;50.054;8.306;2023-03-21T10:39:32;5.72;;;2.67;;
56670;SDS011;42545;50.054;8.306;2023-03-21T10:42:01;7.25;;;3.35;;
56670;SDS011;42545;50.054;8.306;2023-03-21T10:44:29;4.55;;;2.30;;
56670;SDS011;42545;50.054;8.306;2023-03-21T10:46:57;4.65;;;2.33;;
56670;SDS011;42545;50.054;8.306;2023-03-21T10:49:29;4.80;;;2.67;;
56670;SDS011;42545;50.054;8.306;2023-03-21T10:51:56;4.07;;;2.78;;
56670;SDS011;42545;50.054;8.306;2023-03-21T10:54:25;4.07;;;3.25;;
56670;SDS011;42545;50.054;8.306;2023-03-21T10:56:57;4.53;;;2.60;;
56670;SDS011;42545;50.054;8.306;2023-03-21T10:59:33;7.63;;;4.55;;
56670;SDS011;42545;50.054;8.306;2023-03-21T11:02:03;9.98;;;4.40;;
56670;SDS011;42545;50.054;8.306;2023-03-21T11:04:31;7.50;;;4.35;;
56670;SDS011;42545;50.054;8.306;2023-03-21T11:06:58;7.45;;;3.58;;
56670;SDS011;42545;50.054;8.306;2023-03-21T11:09:41;7.00;;;3.90;;
56670;SDS011;42545;50.054;8.306;2023-03-21T11:12:13;6.38;;;3.58;;
56670;SDS011;42545;50.054;8.306;2023-03-21T11:14:41;5.50;;;3.35;;
56670;SDS011;42545;50.054;8.306;2023-03-21T11:17:19;4.03;;;2.90;;
56670;SDS011;42545;50.054;8.306;2023-03-21T11:19:49;6.10;;;3.08;;
56670;SDS011;42545;50.054;8.306;2023-03-21T11:22:17;4.07;;;2.83;;
56670;SDS011;42545;50.054;8.306;2023-03-21T11:24:48;5.50;;;2.60;;
56670;SDS011;42545;50.054;8.306;2023-03-21T11:29:46;3.10;;;2.60;;
56670;SDS011;42545;50.054;8.306;2023-03-21T11:32:19;2.88;;;2.05;;
56670;SDS011;42545;50.054;8.306;2023-03-21T11:34:47;4.82;;;2.63;;
56670;SDS011;42545;50.054;8.306;2023-03-21T11:37:18;3.47;;;2.28;;
56670;SDS011;42545;50.054;8.306;2023-03-21T11:39:53;2.17;;;1.92;;
56670;SDS011;42545;50.054;8.306;2023-03-21T11:42:26;3.70;;;2.70;;
56670;SDS011;42545;50.054;8.306;2023-03-21T11:44:58;3.70;;;2.45;;
56670;SDS011;42545;50.054;8.306;2023-03-21T11:47:27;4.30;;;2.30;;
56670;SDS011;42545;50.054;8.306;2023-03-21T11:49:55;3.70;;;2.65;;
56670;SDS011;42545;50.054;8.306;2023-03-21T11:52:27;5.65;;;3.13;;
56670;SDS011;42545;50.054;8.306;2023-03-21T11:55:26;5.20;;;2.75;;
56670;SDS011;42545;50.054;8.306;2023-03-21T11:58:04;3.65;;;2.88;;
56670;SDS011;42545;50.054;8.306;2023-03-21T12:00:46;4.70;;;2.90;;
56670;SDS011;42545;50.054;8.306;2023-03-21T12:06:15;4.93;;;3.03;;
56670;SDS011;42545;50.054;8.306;2023-03-21T12:08:50;3.95;;;2.47;;
56670;SDS011;42545;50.054;8.306;2023-03-21T12:11:28;5.85;;;2.42;;
56670;SDS011;42545;50.054;8.306;2023-03-21T12:14:04;2.83;;;1.88;;
56670;SDS011;42545;50.054;8.306;2023-03-21T12:16:44;3.00;;;2.20;;
56670;SDS011;42545;50.054;8.306;2023-03-21T12:19:26;2.53;;;2.08;;
56670;SDS011;42545;50.054;8.306;2023-03-21T12:22:09;3.50;;;2.38;;
56670;SDS011;42545;50.054;8.306;2023-03-21T12:24:48;2.40;;;2.08;;
56670;SDS011;42545;50.054;8.306;2023-03-21T12:27:20;3.22;;;2.47;;
56670;SDS011;42545;50.054;8.306;2023-03-21T12:30:02;4.15;;;2.15;;
56670;SDS011;42545;50.054;8.306;2023-03-21T12:32:46;2.47;;;2.20;;
56670;SDS011;42545;50.054;8.306;2023-03-21T12:35:27;4.72;;;3.25;;
56670;SDS011;42545;50.054;8.306;2023-03-21T12:38:05;4.07;;;2.80;;
56670;SDS011;42545;50.054;8.306;2023-03-21T12:40:43;3.92;;;3.22;;
56670;SDS011;42545;50.054;8.306;2023-03-21T12:43:23;3.33;;;2.50;;
56670;SDS011;42545;50.054;8.306;2023-03-21T12:45:56;4.28;;;2.55;;
56670;SDS011;42545;50.054;8.306;2023-03-21T12:48:28;2.83;;;2.20;;
56670;SDS011;42545;50.054;8.306;2023-03-21T12:51:02;3.88;;;2.30;;
56670;SDS011;42545;50.054;8.306;2023-03-21T12:53:35;2.63;;;2.10;;
56670;SDS011;42545;50.054;8.306;2023-03-21T12:56:10;3.55;;;2.45;;
56670;SDS011;42545;50.054;8.306;2023-03-21T12:58:44;3.85;;;2.63;;
56670;SDS011;42545;50.054;8.306;2023-03-21T13:01:15;6.00;;;3.10;;
56670;SDS011;42545;50.054;8.306;2023-03-21T13:03:47;3.88;;;2.80;;
56670;SDS011;42545;50.054;8.306;2023-03-21T13:06:18;3.78;;;2.92;;
56670;SDS011;42545;50.054;8.306;2023-03-21T13:08:50;5.00;;;3.08;;
56670;SDS011;42545;50.054;8.306;2023-03-21T13:11:22;4.25;;;3.38;;
56670;SDS011;42545;50.054;8.306;2023-03-21T13:13:54;3.72;;;2.97;;
56670;SDS011;42545;50.054;8.306;2023-03-21T13:16:29;3.92;;;2.45;;
56670;SDS011;42545;50.054;8.306;2023-03-21T13:19:02;3.47;;;2.55;;
56670;SDS011;42545;50.054;8.306;2023-03-21T13:21:40;3.88;;;2.40;;
56670;SDS011;42545;50.054;8.306;2023-03-21T13:24:18;4.90;;;2.50;;
56670;SDS011;42545;50.054;8.306;2023-03-21T13:26:51;3.58;;;2.92;;
56670;SDS011;42545;50.054;8.306;2023-03-21T13:29:25;3.47;;;2.50;;
56670;SDS011;42545;50.054;8.306;2023-03-21T13:34:24;2.30;;;2.00;;
56670;SDS011;42545;50.054;8.306;2023-03-21T13:36:52;3.25;;;2.20;;
56670;SDS011;42545;50.054;8.306;2023-03-21T13:41:51;5.32;;;2.85;;
56670;SDS011;42545;50.054;8.306;2023-03-21T13:44:21;3.60;;;2.60;;
56670;SDS011;42545;50.054;8.306;2023-03-21T13:46:58;2.60;;;2.10;;
56670;SDS011;42545;50.054;8.306;2023-03-21T13:49:33;3.58;;;2.53;;
56670;SDS011;42545;50.054;8.306;2023-03-21T13:52:01;4.35;;;3.10;;
56670;SDS011;42545;50.054;8.306;2023-03-21T13:54:50;4.22;;;2.80;;
56670;SDS011;42545;50.054;8.306;2023-03-21T13:57:23;3.60;;;2.60;;
56670;SDS011;42545;50.054;8.306;2023-03-21T14:00:14;3.95;;;2.55;;
56670;SDS011;42545;50.054;8.306;2023-03-21T14:02:57;3.20;;;2.38;;
56670;SDS011;42545;50.054;8.306;2023-03-21T14:05:25;3.80;;;2.65;;
56670;SDS011;42545;50.054;8.306;2023-03-21T14:07:54;4.07;;;2.42;;
56670;SDS011;42545;50.054;8.306;2023-03-21T14:10:27;5.18;;;2.80;;
56670;SDS011;42545;50.054;8.306;2023-03-21T14:12:58;5.88;;;3.00;;
56670;SDS011;42545;50.054;8.306;2023-03-21T14:15:28;6.32;;;3.63;;
56670;SDS011;42545;50.054;8.306;2023-03-21T14:18:01;7.03;;;4.57;;
56670;SDS011;42545;50.054;8.306;2023-03-21T14:20:31;7.18;;;4.22;;
56670;SDS011;42545;50.054;8.306;2023-03-21T14:23:02;5.47;;;3.72;;
56670;SDS011;42545;50.054;8.306;2023-03-21T14:25:31;6.10;;;4.13;;
56670;SDS011;42545;50.054;8.306;2023-03-21T14:28:00;7.10;;;3.80;;
56670;SDS011;42545;50.054;8.306;2023-03-21T14:30:30;5.03;;;3.38;;
56670;SDS011;42545;50.054;8.306;2023-03-21T14:33:12;7.03;;;3.83;;
56670;SDS011;42545;50.054;8.306;2023-03-21T14:35:44;9.25;;;4.45;;
56670;SDS011;42545;50.054;8.306;2023-03-21T14:38:17;7.18;;;3.72;;
56670;SDS011;42545;50.054;8.306;2023-03-21T14:40:45;4.90;;;3.33;;
56670;SDS011;42545;50.054;8.306;2023-03-21T14:43:13;6.00;;;3.72;;
56670;SDS011;42545;50.054;8.306;2023-03-21T14:45:40;5.07;;;3.50;;
56670;SDS011;42545;50.054;8.306;2023-03-21T14:48:09;4.60;;;3.38;;
56670;SDS011;42545;50.054;8.306;2023-03-21T14:50:41;5.13;;;3.80;;
56670;SDS011;42545;50.054;8.306;2023-03-21T14:53:13;6.28;;;3.42;;
56670;SDS011;42545;50.054;8.306;2023-03-21T14:55:42;5.97;;;3.92;;
56670;SDS011;42545;50.054;8.306;2023-03-21T14:58:10;11.13;;;5.95;;
56670;SDS011;42545;50.054;8.306;2023-03-21T15:00:38;7.50;;;4.80;;
56670;SDS011;42545;50.054;8.306;2023-03-21T15:03:05;6.55;;;3.72;;
56670;SDS011;42545;50.054;8.306;2023-03-21T15:05:33;5.00;;;3.50;;
56670;SDS011;42545;50.054;8.306;2023-03-21T15:08:06;6.07;;;4.18;;
56670;SDS011;42545;50.054;8.306;2023-03-21T15:10:33;6.90;;;4.28;;
56670;SDS011;42545;50.054;8.306;2023-03-21T15:13:01;4.50;;;3.20;;
56670;SDS011;42545;50.054;8.306;2023-03-21T15:15:39;8.93;;;4.72;;
56670;SDS011;42545;50.054;8.306;2023-03-21T15:18:07;5.97;;;4.20;;
56670;SDS011;42545;50.054;8.306;2023-03-21T15:20:36;5.68;;;4.28;;
56670;SDS011;42545;50.054;8.306;2023-03-21T15:23:07;9.18;;;4.57;;
56670;SDS011;42545;50.054;8.306;2023-03-21T15:25:37;17.13;;;7.10;;